Time;durP1;ratioP1;P1;durP2;ratioP2;P2;SDS_P1;SDS_P2;PMS_P1;PMS_P2;Temp;Humidity;BMP_temperature;BMP_pressure;BME280_temperature;BME280_humidity;BME280_pressure;Samples;Min_cycle;Max_cycle;Signal;HPM_P1;HPM_P2
2023/01/29 00:01:59;;;;;;;23.47;12.60;;;;;;;11.15;46.84;103100.78;5029266;28;20028;-72
2023/01/29 00:04:24;;;;;;;25.10;13.10;;;;;;;11.22;46.41;103092.22;5029821;28;20444;-72
2023/01/29 00:06:50;;;;;;;26.23;14.07;;;;;;;11.29;45.87;103083.69;5045030;28;20064;-72
2023/01/29 00:09:15;;;;;;;24.17;13.63;;;;;;;11.13;46.41;103079.81;5039220;28;20400;-72
2023/01/29 00:11:41;;;;;;;22.17;11.93;;;;;;;11.40;45.83;103086.53;5047541;28;20043;-72
2023/01/29 00:14:06;;;;;;;25.30;12.40;;;;;;;11.20;46.10;103073.00;5049005;28;20453;-72
2023/01/29 00:16:32;;;;;;;24.67;13.70;;;;;;;11.57;45.46;103081.69;5047947;28;20028;-72
2023/01/29 00:18:57;;;;;;;26.57;13.97;;;;;;;11.07;46.79;103081.41;5032191;28;20028;-72
2023/01/29 00:21:24;;;;;;;24.50;13.03;;;;;;;10.31;47.37;103085.56;5048824;28;20052;-72
2023/01/29 00:23:50;;;;;;;22.73;12.67;;;;;;;10.91;46.74;103070.56;5048494;28;20053;-72
2023/01/29 00:26:16;;;;;;;26.43;13.23;;;;;;;11.08;46.59;103064.88;5047658;28;20067;-72
2023/01/29 00:28:41;;;;;;;22.83;13.23;;;;;;;11.46;45.60;103064.84;5047420;28;20085;-72
2023/01/29 00:31:13;;;;;;;27.30;13.10;;;;;;;11.54;45.67;103065.91;5049193;28;20111;-72
2023/01/29 00:33:39;;;;;;;25.47;13.57;;;;;;;10.78;46.81;103068.50;5048782;28;20066;-73
2023/01/29 00:36:07;;;;;;;28.50;14.47;;;;;;;11.20;46.17;103073.00;5048730;28;20029;-72
2023/01/29 00:38:33;;;;;;;23.37;13.40;;;;;;;11.06;46.95;103074.41;5047318;28;20059;-72
2023/01/29 00:46:33;;;;;;;24.70;14.20;;;;;;;11.17;46.39;103062.47;5031152;28;20080;-72
2023/01/29 00:48:58;;;;;;;27.03;13.50;;;;;;;10.73;47.76;103049.19;5044747;28;20120;-72
2023/01/29 00:51:24;;;;;;;26.97;13.57;;;;;;;10.07;48.06;103045.69;5048342;28;20028;-72
2023/01/29 00:53:57;;;;;;;31.37;15.00;;;;;;;10.00;48.47;103056.00;5049166;28;20413;-72
2023/01/29 00:56:25;;;;;;;;;;;;;;;10.82;47.27;103034.59;5050043;28;20044;-72
2023/01/29 00:58:50;;;;;;;26.33;12.67;;;;;;;10.64;47.32;103045.50;5047831;28;19919;-72
2023/01/29 01:01:16;;;;;;;26.30;14.33;;;;;;;10.30;49.00;103042.00;5051690;28;20032;-72
2023/01/29 01:03:41;;;;;;;26.80;13.80;;;;;;;9.93;49.38;103043.63;5036759;28;20417;-73
2023/01/29 01:06:09;;;;;;;27.53;13.97;;;;;;;9.97;49.39;103039.34;5049206;28;20029;-72
2023/01/29 01:11:18;;;;;;;29.33;15.77;;;;;;;10.73;47.94;103028.25;5033840;28;20075;-72
2023/01/29 01:13:44;;;;;;;27.17;15.47;;;;;;;10.68;47.68;103030.78;5033686;28;20026;-72
2023/01/29 01:16:12;;;;;;;27.60;13.93;;;;;;;9.58;50.07;103035.66;5040779;28;20103;-72
2023/01/29 01:18:38;;;;;;;30.63;15.77;;;;;;;10.12;49.11;103044.09;5051609;28;20029;-73
2023/01/29 01:21:03;;;;;;;28.27;15.37;;;;;;;10.67;47.67;103042.97;5052270;28;20021;-72
2023/01/29 01:23:29;;;;;;;28.73;14.93;;;;;;;10.79;47.57;103033.66;5051904;28;20032;-72
2023/01/29 01:25:54;;;;;;;29.23;15.53;;;;;;;10.75;47.18;103037.03;5041028;28;20029;-72
2023/01/29 01:28:20;;;;;;;34.27;16.90;;;;;;;10.01;48.69;103052.56;5040129;28;20039;-72
2023/01/29 01:30:45;;;;;;;26.63;14.83;;;;;;;10.76;48.25;103044.06;5051367;28;20115;-72
2023/01/29 01:33:11;;;;;;;32.17;15.63;;;;;;;10.24;47.99;103057.50;5036001;28;20041;-72
2023/01/29 01:35:38;;;;;;;29.83;15.67;;;;;;;10.88;48.01;103052.19;5040044;28;20067;-73
2023/01/29 01:38:03;;;;;;;30.00;15.53;;;;;;;10.84;47.48;103064.31;5051816;28;20029;-72
2023/01/29 01:40:29;;;;;;;30.53;16.57;;;;;;;10.98;47.49;103054.16;5052215;28;20028;-72
2023/01/29 01:42:56;;;;;;;28.77;15.40;;;;;;;10.63;47.94;103062.06;5052455;28;20108;-73
2023/01/29 01:45:30;;;;;;;32.47;14.83;;;;;;;10.80;48.22;103061.59;5049906;28;20736;-72
2023/01/29 01:48:16;;;;;;;29.80;15.30;;;;;;;11.00;47.64;103060.34;5049559;28;20028;-72
2023/01/29 01:50:48;;;;;;;27.20;15.13;;;;;;;10.28;48.44;103067.19;5041738;28;20063;-72
2023/01/29 01:53:19;;;;;;;28.27;15.10;;;;;;;10.57;47.96;103068.84;5031324;28;20420;-73
2023/01/29 01:55:51;;;;;;;27.60;14.53;;;;;;;10.86;48.09;103066.97;5046779;28;20029;-72
2023/01/29 01:58:23;;;;;;;27.77;15.27;;;;;;;10.31;48.47;103067.28;5083454;28;20048;-72
2023/01/29 02:00:49;;;;;;;26.90;14.93;;;;;;;10.55;48.06;103054.84;5052588;28;20057;-72
2023/01/29 02:11:43;;;;;;;28.67;15.07;;;;;;;10.40;48.59;103050.09;5047254;28;20390;-72
2023/01/29 02:14:10;;;;;;;32.13;14.30;;;;;;;9.62;50.59;103053.19;5050018;28;20053;-72
2023/01/29 02:16:36;;;;;;;28.10;15.43;;;;;;;10.21;49.44;103041.75;5050119;28;20071;-72
2023/01/29 02:19:04;;;;;;;26.17;14.57;;;;;;;10.97;46.54;103026.22;5035120;28;20477;-72
2023/01/29 02:22:04;;;;;;;27.47;14.50;;;;;;;10.53;48.51;103036.50;5043355;28;20408;-73
2023/01/29 02:24:39;;;;;;;26.43;14.83;;;;;;;9.82;50.26;103039.78;5050638;28;20402;-72
2023/01/29 02:27:13;;;;;;;32.47;16.77;;;;;;;10.82;47.95;103036.34;5065188;28;20028;-72
2023/01/29 02:29:47;;;;;;;28.43;15.83;;;;;;;10.91;47.87;103039.19;5050663;28;20370;-73
2023/01/29 02:32:21;;;;;;;28.20;15.47;;;;;;;11.01;47.84;103037.66;5033126;28;20667;-72
2023/01/29 02:38:00;;;;;;;30.40;16.55;;;;;;;10.28;48.65;103054.13;5032507;28;20550;-72
2023/01/29 02:40:31;;;;;;;31.20;17.83;;;;;;;9.85;50.38;103046.00;5043932;28;20515;-72
2023/01/29 02:43:13;;;;;;;29.53;16.90;;;;;;;10.44;48.79;103044.09;5030737;28;20056;-73
2023/01/29 02:45:48;;;;;;;33.30;17.40;;;;;;;10.39;48.89;103037.91;5035911;28;20545;-74
2023/01/29 02:48:20;;;;;;;30.63;16.17;;;;;;;10.68;47.87;103043.84;5050588;28;20666;-73
2023/01/29 02:50:58;;;;;;;26.13;15.15;;;;;;;10.59;48.59;103044.53;5049884;28;20155;-73
2023/01/29 02:53:36;;;;;;;30.90;16.50;;;;;;;10.80;47.90;103038.03;5046107;28;20021;-74
2023/01/29 02:56:15;;;;;;;30.43;17.23;;;;;;;11.10;47.35;103039.59;5047287;28;20021;-73
2023/01/29 02:58:59;;;;;;;31.10;15.70;;;;;;;11.43;46.00;103031.63;5051926;28;20405;-73
2023/01/29 03:01:24;;;;;;;31.43;16.20;;;;;;;11.29;46.23;103036.56;5050361;28;20098;-74
2023/01/29 03:03:53;;;;;;;33.30;17.93;;;;;;;11.25;46.25;103039.97;5050524;28;20064;-74
2023/01/29 03:06:36;;;;;;;32.97;16.90;;;;;;;10.96;47.11;103031.44;5049804;28;20412;-73
2023/01/29 03:09:18;;;;;;;31.93;17.43;;;;;;;10.85;47.71;103034.69;5049581;28;20041;-73
2023/01/29 03:11:50;;;;;;;34.60;16.87;;;;;;;11.37;46.42;103034.09;5048428;28;20528;-73
2023/01/29 03:14:23;;;;;;;28.63;16.98;;;;;;;11.11;46.59;103025.66;5047364;28;20036;-73
2023/01/29 03:16:52;;;;;;;37.33;17.70;;;;;;;11.11;46.47;103028.28;5050513;28;20500;-73
2023/01/29 03:19:22;;;;;;;38.10;18.57;;;;;;;10.88;47.46;103020.81;5049742;28;20120;-73
2023/01/29 03:21:59;;;;;;;35.77;18.57;;;;;;;10.46;48.47;103022.38;5049976;28;20031;-73
2023/01/29 03:33:01;;;;;;;38.20;18.20;;;;;;;10.71;47.84;103020.38;5031438;28;20032;-74
2023/01/29 03:35:35;;;;;;;33.30;17.77;;;;;;;10.68;47.58;103010.72;5042872;28;20079;-73
2023/01/29 03:38:02;;;;;;;37.27;18.47;;;;;;;10.94;47.37;103006.97;5047010;28;20029;-73
2023/01/29 03:40:52;;;;;;;39.50;19.00;;;;;;;10.61;48.63;103002.72;5049553;28;20063;-73
2023/01/29 03:43:49;;;;;;;34.37;18.43;;;;;;;10.49;48.92;102993.69;5081299;28;20039;-73
2023/01/29 03:46:45;;;;;;;34.93;18.07;;;;;;;10.20;49.66;103011.22;5040594;28;20068;-73
2023/01/29 03:49:23;;;;;;;37.90;18.67;;;;;;;10.46;49.06;103011.94;5048548;28;20028;-73
2023/01/29 03:52:19;;;;;;;36.57;18.47;;;;;;;11.05;47.60;103007.22;5048646;28;20036;-73
2023/01/29 03:54:48;;;;;;;35.60;18.40;;;;;;;10.21;49.87;103005.16;5048544;28;20036;-73
2023/01/29 03:57:33;;;;;;;35.27;18.13;;;;;;;10.27;49.90;103002.69;5047605;28;20039;-73
2023/01/29 04:00:01;;;;;;;35.47;18.63;;;;;;;10.40;49.33;103000.41;5048789;28;20021;-73
2023/01/29 04:02:33;;;;;;;34.67;18.30;;;;;;;10.22;49.44;102996.47;5049429;28;20021;-73
2023/01/29 04:05:04;;;;;;;35.53;18.95;;;;;;;9.74;50.71;102999.50;5046988;28;20032;-72
2023/01/29 04:07:32;;;;;;;35.07;18.40;;;;;;;10.00;50.14;102985.47;5031123;28;20053;-73
2023/01/29 04:10:12;;;;;;;35.00;19.53;;;;;;;9.82;50.82;102982.31;5037663;28;20036;-73
2023/01/29 04:12:44;;;;;;;38.93;18.83;;;;;;;9.28;52.01;102988.66;5030540;28;20032;-73
2023/01/29 04:15:15;;;;;;;30.60;17.42;;;;;;;9.46;51.74;102977.84;5042796;28;20048;-73
2023/01/29 04:17:47;;;;;;;37.77;19.17;;;;;;;9.50;51.51;102984.94;5048417;28;20040;-73
2023/01/29 04:20:13;;;;;;;39.45;19.42;;;;;;;9.53;50.61;102984.13;5048301;28;20074;-73
2023/01/29 04:22:40;;;;;;;36.50;18.97;;;;;;;9.83;50.78;102990.22;5050511;28;20116;-73
2023/01/29 04:25:14;;;;;;;36.27;18.80;;;;;;;10.46;49.27;102971.84;5048300;28;20472;-73
2023/01/29 04:28:10;;;;;;;38.67;18.93;;;;;;;9.31;51.95;102976.59;5049031;28;20438;-73
2023/01/29 04:31:04;;;;;;;37.70;18.53;;;;;;;9.59;52.07;102977.38;5044961;28;20032;-73
2023/01/29 04:33:54;;;;;;;38.67;19.77;;;;;;;10.15;50.68;102960.56;5050443;28;20044;-73
2023/01/29 04:36:34;;;;;;;36.27;18.03;;;;;;;10.40;50.12;102959.50;5051618;28;20036;-73
2023/01/29 04:39:17;;;;;;;35.57;18.80;;;;;;;9.63;51.97;102966.16;5051519;28;20036;-73
2023/01/29 04:41:54;;;;;;;33.97;18.13;;;;;;;10.89;48.46;102961.50;5041551;28;20523;-73
2023/01/29 04:44:28;;;;;;;32.30;17.57;;;;;;;10.90;47.68;102951.06;5052482;28;20400;-73
2023/01/29 04:47:08;;;;;;;33.90;18.90;;;;;;;10.95;47.77;102949.44;5052353;28;20033;-73
2023/01/29 04:50:06;;;;;;;36.93;19.33;;;;;;;10.67;48.05;102945.28;5050055;28;20044;-73
2023/01/29 04:52:38;;;;;;;36.70;19.40;;;;;;;10.50;48.80;102935.31;5038836;28;20865;-73
2023/01/29 04:55:18;;;;;;;38.03;19.05;;;;;;;9.90;49.68;102939.00;5034028;28;20034;-73
2023/01/29 04:57:52;;;;;;;34.30;17.73;;;;;;;9.70;50.76;102932.38;5051302;28;20419;-73
2023/01/29 05:00:22;;;;;;;35.70;19.33;;;;;;;10.13;49.34;102941.34;5051063;28;20025;-73
2023/01/29 05:02:48;;;;;;;34.37;18.40;;;;;;;10.62;47.83;102926.91;5050471;28;20032;-73
2023/01/29 05:05:18;;;;;;;35.77;19.47;;;;;;;9.76;49.69;102929.94;5051947;28;20024;-72
2023/01/29 05:07:45;;;;;;;34.60;18.47;;;;;;;9.63;50.56;102932.22;5051847;28;20452;-72
2023/01/29 05:10:13;;;;;;;35.53;18.43;;;;;;;9.67;51.13;102931.47;5048007;28;20021;-73
2023/01/29 05:12:40;;;;;;;34.60;18.53;;;;;;;8.90;51.72;102931.88;5065616;28;20022;-73
2023/01/29 05:15:14;;;;;;;37.00;18.80;;;;;;;9.39;51.28;102928.94;5042439;28;20128;-73
2023/01/29 05:17:41;;;;;;;32.43;18.37;;;;;;;9.68;50.63;102920.19;5051277;28;20051;-73
2023/01/29 05:20:07;;;;;;;35.93;19.40;;;;;;;10.08;49.93;102917.69;5051084;28;20028;-73
2023/01/29 05:22:38;;;;;;;34.83;19.23;;;;;;;9.22;52.12;102936.25;5084640;28;20045;-73
2023/01/29 05:25:20;;;;;;;32.70;18.17;;;;;;;9.32;52.04;102931.34;5050089;28;20362;-72
2023/01/29 05:28:03;;;;;;;37.13;17.63;;;;;;;9.92;50.12;102926.91;5052504;28;20028;-72
2023/01/29 05:30:30;;;;;;;38.10;18.63;;;;;;;9.73;50.52;102930.75;5050831;28;20421;-73
2023/01/29 05:32:55;;;;;;;33.83;17.00;;;;;;;10.30;49.02;102919.16;5051770;28;20029;-73
2023/01/29 05:35:20;;;;;;;31.83;17.37;;;;;;;9.98;49.40;102921.81;5047663;28;20031;-73
2023/01/29 05:37:46;;;;;;;34.90;18.13;;;;;;;9.81;49.71;102913.56;5032167;28;20036;-73
2023/01/29 05:40:12;;;;;;;35.13;18.03;;;;;;;9.65;50.52;102907.03;5065102;28;20022;-73
2023/01/29 05:42:37;;;;;;;34.80;18.67;;;;;;;9.08;51.66;102918.50;5031449;28;20061;-73
2023/01/29 05:45:03;;;;;;;32.63;17.63;;;;;;;9.41;50.07;102919.41;5048096;28;20037;-73
2023/01/29 05:47:28;;;;;;;38.80;18.67;;;;;;;9.04;51.64;102923.56;5048978;28;20024;-73
2023/01/29 05:49:54;;;;;;;31.37;16.93;;;;;;;9.68;49.58;102917.56;5051204;28;20120;-73
2023/01/29 05:52:19;;;;;;;33.83;17.87;;;;;;;10.56;48.20;102916.28;5050806;28;20028;-73
2023/01/29 05:54:44;;;;;;;31.77;16.87;;;;;;;10.38;48.35;102910.63;5052090;28;20477;-73
2023/01/29 05:57:10;;;;;;;33.23;18.10;;;;;;;10.26;48.30;102906.84;5042203;28;20021;-72
2023/01/29 05:59:35;;;;;;;35.93;17.73;;;;;;;9.82;48.58;102912.72;5031118;28;20040;-72
2023/01/29 06:02:01;;;;;;;31.47;16.93;;;;;;;9.90;48.93;102918.13;5031936;28;20063;-71
2023/01/29 06:04:26;;;;;;;31.30;17.20;;;;;;;9.82;49.16;102909.19;5030589;28;20068;-72
2023/01/29 06:06:54;;;;;;;35.43;17.97;;;;;;;10.08;49.44;102906.38;5040766;28;20033;-72
2023/01/29 06:09:20;;;;;;;36.37;17.13;;;;;;;9.98;49.42;102910.50;5046802;28;20032;-74
2023/01/29 06:11:45;;;;;;;30.33;16.67;;;;;;;9.41;50.64;102916.78;5051678;28;20048;-74
2023/01/29 06:14:11;;;;;;;31.03;16.37;;;;;;;9.39;51.46;102921.97;5051585;28;20037;-75
2023/01/29 06:16:36;;;;;;;37.13;18.70;;;;;;;9.38;51.02;102919.31;5049989;28;20037;-72
2023/01/29 06:19:02;;;;;;;34.00;17.40;;;;;;;9.66;50.57;102903.56;5049769;28;20029;-72
2023/01/29 06:21:27;;;;;;;31.87;18.43;;;;;;;10.14;49.47;102896.09;5049017;28;20029;-74
2023/01/29 06:23:53;;;;;;;34.30;17.70;;;;;;;9.63;51.21;102898.28;5049446;28;20027;-72
2023/01/29 06:26:18;;;;;;;33.07;18.67;;;;;;;9.64;50.76;102893.94;5083041;28;20500;-75
2023/01/29 06:28:47;;;;;;;33.07;18.30;;;;;;;9.55;50.20;102889.34;5046849;28;20450;-74
2023/01/29 06:31:12;;;;;;;31.60;16.87;;;;;;;10.05;50.09;102895.84;5050119;28;20036;-74
2023/01/29 06:33:37;;;;;;;35.07;17.60;;;;;;;10.19;49.06;102889.22;5050042;28;20033;-74
2023/01/29 06:36:04;;;;;;;39.63;17.90;;;;;;;9.78;50.74;102886.44;5051985;28;20036;-72
2023/01/29 06:38:30;;;;;;;34.20;17.77;;;;;;;9.71;50.80;102881.91;5040503;28;20029;-72
2023/01/29 06:40:56;;;;;;;33.07;18.43;;;;;;;9.58;51.12;102878.97;5033976;28;20151;-74
2023/01/29 06:43:22;;;;;;;34.27;17.67;;;;;;;8.73;53.21;102879.19;5043625;28;20502;-74
2023/01/29 06:45:56;;;;;;;38.43;20.83;;;;;;;9.68;51.21;102867.97;5079004;28;20507;-74
2023/01/29 06:48:22;;;;;;;40.80;20.43;;;;;;;9.55;50.87;102883.22;5038018;28;20024;-74
2023/01/29 06:50:48;;;;;;;35.47;18.40;;;;;;;9.40;51.14;102888.94;5081338;28;20090;-74
2023/01/29 06:53:15;;;;;;;35.23;18.10;;;;;;;8.88;52.37;102891.81;5046737;28;20025;-74
2023/01/29 06:55:41;;;;;;;34.80;18.90;;;;;;;8.87;52.79;102892.63;5047964;28;20107;-74
2023/01/29 06:58:09;;;;;;;36.10;19.77;;;;;;;9.59;50.64;102880.75;5037734;28;20025;-73
2023/01/29 07:00:35;;;;;;;33.50;17.23;;;;;;;8.97;52.80;102883.34;5050711;28;20033;-74
2023/01/29 07:03:01;;;;;;;34.93;18.83;;;;;;;9.30;51.90;102887.78;5040672;28;20028;-74
2023/01/29 07:05:26;;;;;;;32.53;17.70;;;;;;;9.43;51.33;102879.44;5043170;28;20418;-74
2023/01/29 07:07:51;;;;;;;31.17;17.93;;;;;;;9.48;50.38;102872.63;5049330;28;20048;-74
2023/01/29 07:10:17;;;;;;;37.00;18.43;;;;;;;10.10;49.85;102876.84;5048593;28;20021;-74
2023/01/29 07:12:42;;;;;;;35.80;18.30;;;;;;;10.07;49.25;102875.84;5049832;28;20031;-74
2023/01/29 07:15:08;;;;;;;33.10;18.77;;;;;;;9.43;50.26;102889.88;5048674;28;20031;-74
2023/01/29 07:17:34;;;;;;;36.23;17.87;;;;;;;10.30;49.43;102879.94;5043137;28;20051;-74
2023/01/29 07:19:59;;;;;;;32.17;18.17;;;;;;;10.11;49.07;102875.09;5055865;28;20480;-74
2023/01/29 07:22:24;;;;;;;33.50;18.40;;;;;;;10.21;49.05;102871.88;5049457;28;20075;-74
2023/01/29 07:24:50;;;;;;;38.37;18.70;;;;;;;9.48;50.39;102869.16;5051085;28;20127;-74
2023/01/29 07:27:15;;;;;;;30.43;17.40;;;;;;;8.74;52.56;102880.09;5050150;28;20020;-74
2023/01/29 07:29:40;;;;;;;33.20;19.10;;;;;;;8.58;53.09;102878.72;5045608;28;20017;-74
2023/01/29 07:32:06;;;;;;;34.63;18.87;;;;;;;9.51;51.70;102867.50;5047602;28;20499;-74
2023/01/29 07:34:32;;;;;;;35.27;18.83;;;;;;;9.29;51.00;102880.81;5048699;28;20064;-74
2023/01/29 07:36:58;;;;;;;37.03;18.30;;;;;;;9.24;51.71;102878.06;5049302;28;20056;-74
2023/01/29 07:39:23;;;;;;;32.63;19.27;;;;;;;8.55;53.56;102884.72;5044269;28;20109;-74
2023/01/29 07:41:48;;;;;;;33.00;17.33;;;;;;;9.42;51.63;102882.03;5029531;28;20064;-74
2023/01/29 07:44:14;;;;;;;35.97;18.40;;;;;;;9.60;50.75;102879.94;5031126;28;20024;-74
2023/01/29 07:46:39;;;;;;;32.57;18.40;;;;;;;9.15;51.58;102894.34;5045710;28;20021;-74
2023/01/29 07:49:04;;;;;;;36.63;18.47;;;;;;;8.85;52.67;102878.69;5040741;28;20034;-74
2023/01/29 07:51:30;;;;;;;30.67;17.63;;;;;;;9.21;51.87;102883.19;5046911;28;20491;-74
2023/01/29 07:53:55;;;;;;;33.20;18.57;;;;;;;9.31;52.39;102868.66;5049481;28;20055;-75
2023/01/29 07:56:21;;;;;;;34.67;18.50;;;;;;;9.21;51.65;102875.38;5048183;28;20033;-73
2023/01/29 07:58:46;;;;;;;37.63;18.33;;;;;;;9.05;52.21;102875.75;5049598;28;20056;-74
2023/01/29 08:01:11;;;;;;;34.40;17.80;;;;;;;9.35;51.43;102865.31;5049478;28;20052;-74
2023/01/29 08:03:37;;;;;;;32.20;17.63;;;;;;;9.75;50.16;102860.25;5047219;28;20029;-74
2023/01/29 08:06:03;;;;;;;34.50;18.07;;;;;;;9.24;51.72;102862.41;5038810;28;20032;-74
2023/01/29 08:08:29;;;;;;;33.97;18.50;;;;;;;8.60;53.14;102867.50;5045060;28;20098;-74
2023/01/29 08:10:54;;;;;;;29.97;16.13;;;;;;;8.21;54.67;102873.19;5050244;28;20037;-75
2023/01/29 08:13:20;;;;;;;35.40;18.13;;;;;;;9.34;52.06;102867.03;5048275;28;20029;-74
2023/01/29 08:15:45;;;;;;;30.60;18.50;;;;;;;8.97;53.41;102862.50;5045901;28;20045;-74
2023/01/29 08:18:11;;;;;;;40.03;19.17;;;;;;;9.27;52.20;102859.00;5044509;28;20028;-74
2023/01/29 08:20:37;;;;;;;35.03;18.17;;;;;;;8.90;52.98;102853.63;5048547;28;20068;-74
2023/01/29 08:23:05;;;;;;;34.57;19.33;;;;;;;8.82;52.54;102847.31;5046995;28;20131;-74
2023/01/29 08:25:31;;;;;;;33.10;18.40;;;;;;;8.65;53.75;102850.28;5031602;28;20374;-73
2023/01/29 08:27:58;;;;;;;34.77;18.40;;;;;;;8.47;53.59;102849.72;5037473;28;20087;-73
2023/01/29 08:30:29;;;;;;;36.00;18.73;;;;;;;8.89;53.25;102843.13;5047779;28;20500;-73
2023/01/29 08:32:55;;;;;;;34.87;18.23;;;;;;;8.57;54.17;102843.97;5043599;28;20035;-73
2023/01/29 08:35:21;;;;;;;38.40;19.60;;;;;;;9.14;53.00;102840.38;5046532;28;20033;-73
2023/01/29 08:38:13;;;;;;;34.13;18.23;;;;;;;8.50;54.44;102844.59;5036646;28;20040;-73
2023/01/29 08:40:39;;;;;;;31.95;17.30;;;;;;;8.61;53.94;102842.31;5040526;28;20041;-73
2023/01/29 08:43:06;;;;;;;32.77;18.47;;;;;;;9.22;52.42;102832.78;5057368;28;20028;-73
2023/01/29 08:45:33;;;;;;;31.77;17.80;;;;;;;9.17;52.80;102823.94;5079440;28;20028;-73
2023/01/29 08:47:59;;;;;;;33.27;18.40;;;;;;;8.82;53.95;102829.06;5045478;28;20060;-72
2023/01/29 08:50:24;;;;;;;31.43;17.60;;;;;;;9.07;53.03;102828.00;5051076;28;20170;-73
2023/01/29 08:52:50;;;;;;;34.33;18.30;;;;;;;8.10;54.71;102838.97;5046890;28;20052;-73
2023/01/29 08:55:15;;;;;;;34.13;18.60;;;;;;;9.21;52.79;102825.78;5048621;28;20082;-72
2023/01/29 08:57:40;;;;;;;34.03;17.97;;;;;;;10.07;50.28;102821.00;5046692;28;20377;-73
2023/01/29 09:00:13;;;;;;;34.80;18.53;;;;;;;9.39;52.38;102819.31;5049104;28;20032;-72
2023/01/29 09:02:39;;;;;;;35.87;17.70;;;;;;;8.81;54.15;102829.88;5048192;28;20052;-72
2023/01/29 09:05:05;;;;;;;30.70;18.47;;;;;;;9.24;53.02;102818.03;5048865;28;20058;-73
2023/01/29 09:07:30;;;;;;;36.93;18.57;;;;;;;9.43;51.96;102822.03;5046954;28;20053;-73
2023/01/29 09:09:56;;;;;;;31.10;18.37;;;;;;;8.80;53.98;102817.69;5031016;28;20063;-72
2023/01/29 09:12:21;;;;;;;35.63;19.60;;;;;;;9.08;53.70;102815.84;5047212;28;20039;-73
2023/01/29 09:14:46;;;;;;;39.27;21.00;;;;;;;8.78;54.22;102820.25;5048310;28;20370;-73
2023/01/29 09:17:12;;;;;;;32.70;18.17;;;;;;;9.01;54.09;102822.59;5049542;28;20542;-72
2023/01/29 09:19:37;;;;;;;41.17;20.10;;;;;;;9.36;53.50;102819.22;5038842;28;20037;-73
2023/01/29 09:22:02;;;;;;;32.77;18.27;;;;;;;9.30;52.56;102818.22;5043709;28;20044;-72
2023/01/29 09:24:28;;;;;;;40.27;20.13;;;;;;;8.72;53.66;102814.84;5048090;28;20025;-73
2023/01/29 09:26:54;;;;;;;40.10;20.57;;;;;;;9.32;53.61;102815.63;5062307;28;20414;-72
2023/01/29 09:29:19;;;;;;;36.93;20.07;;;;;;;9.53;53.04;102812.69;5050148;28;20108;-73
2023/01/29 09:31:44;;;;;;;36.23;20.60;;;;;;;9.71;52.17;102816.63;5052534;28;20037;-72
2023/01/29 09:34:10;;;;;;;38.73;20.17;;;;;;;9.60;52.75;102814.66;5040044;28;20484;-73
2023/01/29 09:36:35;;;;;;;36.93;21.43;;;;;;;9.69;52.89;102811.38;5046797;28;20033;-73
2023/01/29 09:39:00;;;;;;;35.27;19.40;;;;;;;9.87;51.70;102813.56;5050361;28;20025;-73
2023/01/29 09:41:29;;;;;;;38.53;19.90;;;;;;;9.06;53.97;102814.94;5051089;28;20112;-73
2023/01/29 09:44:01;;;;;;;38.10;20.90;;;;;;;9.09;54.90;102809.78;5045413;28;20026;-73
2023/01/29 09:46:39;;;;;;;35.87;20.60;;;;;;;9.56;53.75;102817.13;5051521;28;20049;-73
2023/01/29 09:49:31;;;;;;;38.13;21.87;;;;;;;9.60;53.12;102812.03;5050431;28;20058;-73
2023/01/29 09:52:13;;;;;;;37.70;20.70;;;;;;;8.95;54.97;102806.81;5082503;28;20095;-73
2023/01/29 09:55:07;;;;;;;42.20;20.90;;;;;;;9.26;55.26;102808.53;5041465;28;20064;-72
2023/01/29 09:57:43;;;;;;;38.70;20.93;;;;;;;8.65;55.45;102820.72;5047964;28;20063;-73
2023/01/29 10:00:23;;;;;;;43.13;21.60;;;;;;;9.10;54.39;102798.53;5044157;28;20033;-73
2023/01/29 10:02:55;;;;;;;40.07;20.73;;;;;;;8.79;55.66;102784.59;5048655;28;20021;-73
2023/01/29 10:05:45;;;;;;;38.83;21.67;;;;;;;9.54;54.45;102797.94;5052364;28;20432;-72
2023/01/29 10:08:40;;;;;;;42.93;22.07;;;;;;;10.22;52.00;102795.22;5047049;28;20064;-72
2023/01/29 10:11:12;;;;;;;35.80;20.03;;;;;;;8.70;55.07;102800.00;5045338;28;20017;-73
2023/01/29 10:14:01;;;;;;;40.25;21.35;;;;;;;9.78;52.68;102797.66;5044891;28;20493;-72
2023/01/29 10:16:35;;;;;;;36.93;20.50;;;;;;;9.91;51.99;102798.84;5046450;28;20032;-73
2023/01/29 10:19:18;;;;;;;38.33;21.67;;;;;;;10.46;51.03;102792.28;5046163;28;20142;-72
2023/01/29 10:21:53;;;;;;;39.83;21.07;;;;;;;10.88;49.73;102782.72;5050137;28;20503;-72
2023/01/29 10:24:35;;;;;;;40.57;21.33;;;;;;;10.34;51.62;102776.31;5042934;28;20032;-73
2023/01/29 10:27:02;;;;;;;45.22;23.52;;;;;;;9.85;51.93;102783.91;5101427;28;20032;-73
2023/01/29 10:29:30;;;;;;;40.23;22.37;;;;;;;9.20;53.95;102787.47;5071854;28;20027;-73
2023/01/29 10:32:03;;;;;;;41.10;22.03;;;;;;;9.88;52.62;102778.75;5054502;28;20035;-72
2023/01/29 10:34:35;;;;;;;41.20;21.70;;;;;;;10.13;52.82;102774.97;5034537;28;20489;-73
2023/01/29 10:37:14;;;;;;;40.70;22.38;;;;;;;10.72;50.27;102775.41;5030671;28;20048;-73
2023/01/29 10:39:39;;;;;;;43.70;21.80;;;;;;;9.42;52.12;102777.63;5031205;28;20021;-72
2023/01/29 10:42:05;;;;;;;40.70;22.00;;;;;;;10.48;51.31;102774.03;5032234;28;20048;-73
2023/01/29 10:44:40;;;;;;;38.03;21.60;;;;;;;9.25;53.22;102778.06;5030979;28;20099;-73
2023/01/29 10:47:33;;;;;;;43.50;23.60;;;;;;;9.84;52.90;102771.69;5049497;28;20025;-72
2023/01/29 10:50:07;;;;;;;41.03;22.50;;;;;;;9.83;53.06;102759.47;5050090;28;20032;-72
2023/01/29 10:52:56;;;;;;;41.17;21.87;;;;;;;10.13;52.57;102750.59;5051055;28;20033;-73
2023/01/29 10:56:07;;;;;;;41.13;21.27;;;;;;;10.57;51.93;102744.59;5051528;28;20098;-73
2023/01/29 10:58:42;;;;;;;46.33;23.27;;;;;;;10.16;51.85;102737.59;5049566;28;20075;-72
2023/01/29 11:01:09;;;;;;;45.87;23.23;;;;;;;10.02;52.52;102734.66;5050224;28;20125;-72
2023/01/29 11:03:35;;;;;;;43.37;22.83;;;;;;;9.69;53.11;102730.44;5050397;28;20388;-73
2023/01/29 11:06:25;;;;;;;41.90;22.40;;;;;;;9.98;54.04;102732.84;5050199;28;20035;-72
2023/01/29 11:09:09;;;;;;;40.80;22.37;;;;;;;9.86;53.88;102738.66;5051671;28;20114;-73
2023/01/29 11:11:43;;;;;;;41.80;23.93;;;;;;;9.90;52.90;102724.81;5037411;28;20079;-72
2023/01/29 11:14:17;;;;;;;43.13;23.37;;;;;;;10.16;52.94;102725.38;5047296;28;20029;-73
2023/01/29 11:16:46;;;;;;;41.33;22.77;;;;;;;9.95;52.52;102723.19;5051874;28;20031;-73
2023/01/29 11:19:12;;;;;;;39.70;22.53;;;;;;;9.48;53.02;102721.22;5082700;28;20036;-72
2023/01/29 11:21:54;;;;;;;41.77;21.53;;;;;;;9.64;53.38;102722.50;5049744;28;20052;-73
2023/01/29 11:24:19;;;;;;;42.80;23.77;;;;;;;10.24;52.25;102720.34;5051150;28;20057;-74
2023/01/29 11:26:48;;;;;;;40.20;22.93;;;;;;;10.43;51.55;102715.56;5083300;28;20203;-73
2023/01/29 11:29:46;;;;;;;42.37;22.60;;;;;;;10.30;52.33;102715.25;5083720;28;20025;-73
2023/01/29 11:32:18;;;;;;;39.70;22.47;;;;;;;9.77;54.31;102715.81;5048977;28;20555;-72
2023/01/29 11:35:02;;;;;;;41.87;21.30;;;;;;;10.06;54.32;102709.50;5050510;28;20540;-73
2023/01/29 11:37:36;;;;;;;45.83;21.87;;;;;;;9.88;53.82;102705.63;5050052;28;20032;-73
2023/01/29 11:40:31;;;;;;;41.87;22.37;;;;;;;9.96;53.80;102709.28;5050099;28;20029;-73
2023/01/29 11:43:30;;;;;;;39.43;21.83;;;;;;;9.72;53.95;102703.50;5032159;28;20037;-73
2023/01/29 11:46:02;;;;;;;40.70;23.10;;;;;;;9.57;55.29;102697.06;5031356;28;20567;-74
2023/01/29 11:48:46;;;;;;;38.77;21.47;;;;;;;9.48;55.36;102699.47;5030290;28;20030;-74
2023/01/29 11:51:25;;;;;;;40.60;22.40;;;;;;;9.65;54.37;102692.91;5035109;28;20025;-73
2023/01/29 11:53:54;;;;;;;43.00;22.93;;;;;;;9.94;53.80;102692.69;5049444;28;20060;-74
2023/01/29 11:56:39;;;;;;;37.20;22.00;;;;;;;10.15;54.16;102683.56;5049154;28;20028;-74
2023/01/29 11:59:04;;;;;;;37.50;21.73;;;;;;;9.63;53.39;102681.56;5050832;28;20481;-74
2023/01/29 12:01:40;;;;;;;40.90;21.67;;;;;;;9.92;53.99;102676.13;5049394;28;20110;-74